Time;durP1;ratioP1;P1;durP2;ratioP2;P2;SDS_P1;SDS_P2;PMS_P1;PMS_P2;Temp;Humidity;BMP_temperature;BMP_pressure;BME280_temperature;BME280_humidity;BME280_pressure;Samples;Min_cycle;Max_cycle;Signal;HPM_P1;HPM_P2
2022/07/02 00:00:55;;;;;;;11.50;7.57;;;;;;;26.78;59.03;99474.22;5050045;28;20811;-66
2022/07/02 00:03:28;;;;;;;9.18;7.28;;;;;;;26.67;58.90;99450.16;5050405;28;20206;-66
2022/07/02 00:05:57;;;;;;;8.97;8.07;;;;;;;26.72;59.24;99471.88;5050655;28;20227;-66
2022/07/02 00:08:26;;;;;;;8.38;7.47;;;;;;;26.70;60.19;99484.28;5050786;28;20196;-65
2022/07/02 00:10:54;;;;;;;12.37;8.90;;;;;;;26.50;60.75;99462.47;5050432;28;20218;-66
2022/07/02 00:13:23;;;;;;;8.68;7.93;;;;;;;26.60;60.76;99483.03;5050295;28;20206;-66
2022/07/02 00:15:50;;;;;;;11.00;8.10;;;;;;;26.61;60.36;99486.53;5050261;28;20188;-66
2022/07/02 00:18:19;;;;;;;11.43;8.30;;;;;;;26.61;60.16;99486.53;5050220;28;20192;-65
2022/07/02 00:20:46;;;;;;;9.47;8.30;;;;;;;26.61;59.61;99490.03;5050087;28;20196;-65
2022/07/02 00:23:13;;;;;;;8.70;7.45;;;;;;;26.63;59.15;99484.66;5050094;28;20191;-66
2022/07/02 00:25:43;;;;;;;7.72;7.13;;;;;;;26.61;59.09;99495.28;5050045;28;20215;-66
2022/07/02 00:28:12;;;;;;;10.27;9.25;;;;;;;26.59;59.06;99488.38;5050179;28;20548;-66
2022/07/02 00:30:43;;;;;;;9.00;8.10;;;;;;;26.39;59.33;99463.00;5050271;28;20192;-65
2022/07/02 00:33:13;;;;;;;12.55;9.23;;;;;;;26.51;59.56;99488.72;5050249;28;20180;-66
2022/07/02 00:35:40;;;;;;;15.52;10.85;;;;;;;26.48;59.37;99482.78;5050056;28;20199;-66
2022/07/02 00:38:07;;;;;;;15.55;11.75;;;;;;;26.49;59.02;99489.75;5050121;28;20203;-66
2022/07/02 00:40:35;;;;;;;13.73;12.20;;;;;;;26.46;59.37;99485.47;5050058;28;20199;-66
2022/07/02 00:43:03;;;;;;;15.95;12.15;;;;;;;26.44;59.62;99479.44;5050336;28;20188;-66
2022/07/02 00:45:33;;;;;;;18.77;12.27;;;;;;;26.43;59.36;99497.94;5049996;28;20224;-66
2022/07/02 00:48:01;;;;;;;15.07;11.38;;;;;;;26.39;59.86;99497.25;5050180;28;20712;-66
2022/07/02 00:50:28;;;;;;;12.80;10.73;;;;;;;26.40;59.59;99490.22;5049907;28;20254;-66
2022/07/02 00:52:55;;;;;;;12.23;10.50;;;;;;;26.35;59.51;99486.00;5049923;28;20439;-66
2022/07/02 00:55:22;;;;;;;15.05;10.25;;;;;;;26.39;59.43;99497.25;5049925;28;20192;-65
2022/07/02 00:57:49;;;;;;;12.57;9.85;;;;;;;26.36;60.09;99497.41;5050049;28;20196;-65
2022/07/02 01:00:19;;;;;;;11.45;10.20;;;;;;;26.32;61.03;99498.47;5049967;28;20188;-66
2022/07/02 01:02:47;;;;;;;11.35;10.20;;;;;;;26.27;61.43;99493.41;5049675;28;20199;-65
2022/07/02 01:05:16;;;;;;;11.60;10.48;;;;;;;26.25;61.48;99494.41;5049601;28;20455;-65
2022/07/02 01:07:46;;;;;;;14.50;11.00;;;;;;;26.24;61.83;99492.69;5049682;28;20570;-65
2022/07/02 01:10:17;;;;;;;11.20;10.07;;;;;;;26.17;62.37;99492.16;5049995;28;20200;-65
2022/07/02 01:12:46;;;;;;;12.13;9.53;;;;;;;26.12;63.12;99491.47;5049724;28;20231;-65
2022/07/02 01:15:14;;;;;;;11.63;10.43;;;;;;;26.03;63.76;99486.66;5049675;28;20196;-65
2022/07/02 01:17:42;;;;;;;13.32;10.50;;;;;;;25.92;64.56;99491.56;5049541;28;20618;-65
2022/07/02 01:20:11;;;;;;;14.60;13.07;;;;;;;25.88;65.61;99487.34;5049669;28;20188;-65
2022/07/02 01:22:40;;;;;;;18.23;14.77;;;;;;;25.55;66.54;99430.97;5050063;28;20196;-65
2022/07/02 01:25:09;;;;;;;14.85;12.30;;;;;;;25.86;67.27;99486.56;5048362;28;20505;-66
2022/07/02 01:27:35;;;;;;;12.52;10.98;;;;;;;25.87;67.81;99490.91;5049569;28;20192;-65
2022/07/02 01:30:03;;;;;;;12.32;11.23;;;;;;;25.84;68.30;99495.47;5049570;28;20201;-66
2022/07/02 01:32:30;;;;;;;11.93;10.82;;;;;;;25.78;68.48;99499.22;5049443;28;20682;-66
2022/07/02 01:35:04;;;;;;;12.73;11.48;;;;;;;25.73;68.88;99498.59;5049382;28;20199;-65
2022/07/02 01:37:31;;;;;;;12.68;11.30;;;;;;;25.67;68.89;99502.34;5049496;28;20436;-66
2022/07/02 01:39:59;;;;;;;15.65;11.43;;;;;;;25.65;69.17;99498.94;5049263;28;20196;-66
2022/07/02 01:42:26;;;;;;;11.70;10.10;;;;;;;25.63;69.31;99487.59;5049732;28;20195;-65
2022/07/02 01:44:53;;;;;;;13.00;11.73;;;;;;;25.55;70.03;99491.50;5049291;28;20232;-65
2022/07/02 01:47:20;;;;;;;13.15;10.88;;;;;;;25.55;69.89;99496.75;5049392;28;20558;-65
2022/07/02 01:49:47;;;;;;;14.02;11.63;;;;;;;25.55;69.94;99499.41;5051535;28;20193;-66
2022/07/02 01:52:15;;;;;;;15.65;11.65;;;;;;;25.51;69.89;99498.69;5053212;28;20563;-66
2022/07/02 01:54:43;;;;;;;15.77;11.82;;;;;;;25.46;69.42;99495.38;5053055;28;20192;-66
2022/07/02 01:57:11;;;;;;;13.18;11.68;;;;;;;25.50;68.84;99499.59;5051765;28;20439;-66
2022/07/02 01:59:39;;;;;;;12.63;11.33;;;;;;;25.40;68.48;99493.03;5052859;28;20188;-65
2022/07/02 02:02:06;;;;;;;12.43;11.23;;;;;;;25.43;68.23;99495.53;5052638;28;20254;-66
2022/07/02 02:04:34;;;;;;;13.37;11.50;;;;;;;25.41;68.02;99488.63;5052842;28;20578;-66
2022/07/02 02:07:01;;;;;;;15.80;14.20;;;;;;;25.41;67.53;99507.03;5052718;28;20212;-66
2022/07/02 02:09:28;;;;;;;12.90;11.70;;;;;;;25.35;67.51;99497.63;5052647;28;20192;-66
2022/07/02 02:11:55;;;;;;;13.77;12.38;;;;;;;25.35;67.29;99494.16;5052635;28;20575;-65
2022/07/02 02:14:23;;;;;;;13.53;12.33;;;;;;;25.33;67.56;99493.34;5052481;28;20207;-66
2022/07/02 02:16:50;;;;;;;12.77;11.67;;;;;;;25.33;67.20;99488.06;5052489;28;20555;-66
2022/07/02 02:19:16;;;;;;;13.00;11.70;;;;;;;25.36;67.59;99493.19;5052281;28;20203;-66
2022/07/02 02:21:43;;;;;;;15.00;12.03;;;;;;;25.38;67.40;99496.66;5052376;28;20200;-66
2022/07/02 02:24:10;;;;;;;13.40;12.00;;;;;;;25.37;67.13;99497.56;5052344;28;20192;-65
2022/07/02 02:26:37;;;;;;;13.13;11.90;;;;;;;25.39;67.35;99493.06;5052242;28;20791;-65
2022/07/02 02:29:04;;;;;;;13.85;12.55;;;;;;;25.38;67.42;99497.47;5051698;28;20470;-66
2022/07/02 02:31:32;;;;;;;12.03;10.77;;;;;;;25.42;66.75;99500.84;5052128;28;20192;-65
2022/07/02 02:33:59;;;;;;;12.87;11.63;;;;;;;25.43;67.01;99497.28;5052152;28;20196;-65
2022/07/02 02:36:26;;;;;;;13.17;11.97;;;;;;;25.39;66.92;99499.19;5052098;28;20659;-65
2022/07/02 02:38:53;;;;;;;13.87;12.17;;;;;;;25.40;66.89;99500.06;5052173;28;20204;-65
2022/07/02 02:41:20;;;;;;;13.97;12.57;;;;;;;25.41;67.31;99502.59;5051999;28;20192;-66
2022/07/02 02:43:46;;;;;;;14.50;12.90;;;;;;;25.42;66.88;99503.47;5052152;28;20189;-65
2022/07/02 02:46:13;;;;;;;17.77;14.97;;;;;;;25.40;67.00;99507.94;5051794;28;20231;-65
2022/07/02 02:48:42;;;;;;;14.73;13.18;;;;;;;25.39;67.26;99508.84;5052144;28;20219;-66
2022/07/02 02:51:10;;;;;;;18.50;13.40;;;;;;;25.41;66.89;99512.31;5051738;28;20199;-65
2022/07/02 02:53:37;;;;;;;12.82;11.52;;;;;;;25.38;67.00;99515.06;5052069;28;20628;-66
2022/07/02 02:56:04;;;;;;;13.30;10.70;;;;;;;25.32;66.48;99517.94;5051866;28;20196;-66
2022/07/02 02:58:31;;;;;;;12.80;11.50;;;;;;;25.32;66.38;99510.06;5052161;28;20211;-66
2022/07/02 03:00:58;;;;;;;12.48;11.38;;;;;;;25.34;66.67;99505.56;5050711;28;20191;-66
2022/07/02 03:03:25;;;;;;;12.27;11.02;;;;;;;25.36;66.14;99508.97;5051922;28;20195;-65
2022/07/02 03:05:54;;;;;;;12.97;10.57;;;;;;;25.41;65.71;99509.66;5051756;28;20224;-65
2022/07/02 03:08:21;;;;;;;12.03;10.73;;;;;;;25.52;64.95;99517.97;5051634;28;20595;-66
2022/07/02 03:10:50;;;;;;;15.20;10.97;;;;;;;25.68;64.36;99522.47;5051371;28;20655;-66
2022/07/02 03:13:16;;;;;;;12.65;11.50;;;;;;;25.86;63.45;99522.56;5051627;28;20200;-66
2022/07/02 03:15:44;;;;;;;12.63;11.43;;;;;;;26.00;63.09;99523.66;5051242;28;20443;-65
2022/07/02 03:18:10;;;;;;;12.18;10.88;;;;;;;26.06;62.46;99530.41;5051483;28;20200;-65
2022/07/02 03:20:37;;;;;;;12.90;11.60;;;;;;;26.05;61.62;99528.69;5051246;28;20188;-66
2022/07/02 03:23:06;;;;;;;13.18;11.88;;;;;;;25.94;62.54;99530.97;5051396;28;20207;-67
2022/07/02 03:25:33;;;;;;;12.65;11.55;;;;;;;25.94;62.50;99525.69;5051331;28;20186;-66
2022/07/02 03:28:00;;;;;;;15.23;12.45;;;;;;;25.99;62.95;99534.25;5051074;28;20572;-66
2022/07/02 03:30:27;;;;;;;14.03;12.53;;;;;;;25.95;63.01;99541.44;5050975;28;20195;-66
2022/07/02 03:32:53;;;;;;;12.50;11.17;;;;;;;25.98;63.25;99541.31;5050948;28;20206;-66
2022/07/02 03:35:20;;;;;;;13.75;12.00;;;;;;;25.92;63.40;99538.09;5050197;28;20810;-66
2022/07/02 03:37:47;;;;;;;12.77;11.57;;;;;;;25.95;63.53;99538.81;5050889;28;20192;-66
2022/07/02 03:40:15;;;;;;;12.53;11.37;;;;;;;26.01;63.14;99549.06;5050956;28;20193;-66
2022/07/02 03:42:42;;;;;;;12.10;10.95;;;;;;;25.94;63.23;99552.03;5050821;28;20192;-66
2022/07/02 03:45:10;;;;;;;12.00;10.90;;;;;;;25.98;63.29;99557.13;5050703;28;20285;-66
2022/07/02 03:47:37;;;;;;;11.68;10.48;;;;;;;25.92;63.21;99565.28;5050652;28;20220;-66
2022/07/02 03:50:04;;;;;;;13.30;11.93;;;;;;;25.89;63.59;99551.41;5050828;28;20205;-66
2022/07/02 03:52:31;;;;;;;14.00;11.50;;;;;;;25.93;63.37;99561.72;5050348;28;20203;-66
2022/07/02 03:54:58;;;;;;;12.40;10.68;;;;;;;25.90;63.76;99561.00;5050813;28;20192;-66
2022/07/02 03:57:26;;;;;;;13.13;11.80;;;;;;;25.88;63.90;99558.44;5050766;28;20195;-66
2022/07/02 03:59:53;;;;;;;13.52;12.00;;;;;;;25.82;63.72;99558.72;5050597;28;20203;-65
2022/07/02 04:02:20;;;;;;;13.87;12.47;;;;;;;25.78;63.89;99565.91;5050659;28;20195;-66
2022/07/02 04:04:47;;;;;;;14.67;13.23;;;;;;;25.72;63.60;99565.31;5050285;28;20195;-66
2022/07/02 04:07:13;;;;;;;18.17;14.32;;;;;;;25.63;64.14;99566.56;5049880;28;20446;-66
2022/07/02 04:09:40;;;;;;;15.43;13.83;;;;;;;25.68;64.07;99561.13;5050387;28;20544;-66
2022/07/02 04:12:09;;;;;;;15.05;13.45;;;;;;;25.75;63.94;99571.31;5050200;28;20200;-66
2022/07/02 04:14:37;;;;;;;18.23;14.13;;;;;;;25.78;63.98;99567.66;5050447;28;20266;-65
2022/07/02 04:17:05;;;;;;;15.97;13.77;;;;;;;25.76;63.92;99573.03;5050262;28;20571;-66
2022/07/02 04:19:31;;;;;;;15.13;13.40;;;;;;;25.80;62.96;99573.72;5050126;28;20185;-66
2022/07/02 04:22:01;;;;;;;15.30;13.68;;;;;;;25.85;62.96;99577.00;5050193;28;20567;-66
2022/07/02 04:24:28;;;;;;;13.93;12.70;;;;;;;25.92;61.83;99574.94;5049658;28;20192;-66
2022/07/02 04:26:54;;;;;;;13.82;11.63;;;;;;;26.00;61.74;99573.69;5049942;28;20224;-66
2022/07/02 04:29:21;;;;;;;12.65;11.38;;;;;;;26.08;61.36;99573.34;5050146;28;20196;-66
2022/07/02 04:31:50;;;;;;;11.98;10.77;;;;;;;26.16;59.88;99572.09;5050170;28;20218;-66
2022/07/02 04:34:16;;;;;;;13.00;11.25;;;;;;;26.21;59.16;99574.50;5049990;28;20188;-66
2022/07/02 04:36:43;;;;;;;12.02;10.77;;;;;;;26.18;59.22;99569.38;5049781;28;20651;-67
2022/07/02 04:39:10;;;;;;;13.68;11.82;;;;;;;26.13;59.23;99572.22;5049709;28;20435;-66
2022/07/02 04:41:37;;;;;;;12.40;11.23;;;;;;;26.06;60.28;99565.50;5050104;28;20586;-66
2022/07/02 04:44:04;;;;;;;13.65;12.23;;;;;;;26.19;60.03;99571.97;5050109;28;20200;-66
2022/07/02 04:46:31;;;;;;;13.43;12.02;;;;;;;26.29;59.51;99569.72;5049606;28;20231;-66
2022/07/02 04:48:59;;;;;;;12.13;10.90;;;;;;;26.26;59.61;99572.53;5050135;28;20196;-66
2022/07/02 04:51:26;;;;;;;12.88;11.13;;;;;;;26.36;59.55;99573.81;5049848;28;20188;-66
2022/07/02 04:53:53;;;;;;;13.05;11.85;;;;;;;26.38;58.69;99574.59;5049308;28;20535;-66
2022/07/02 04:56:20;;;;;;;12.32;11.05;;;;;;;26.41;58.48;99581.50;5049739;28;20559;-66
2022/07/02 04:58:47;;;;;;;12.77;11.17;;;;;;;26.36;58.07;99579.09;5049794;28;20207;-66
2022/07/02 05:01:13;;;;;;;11.43;10.30;;;;;;;26.42;58.06;99584.06;5049599;28;20662;-66
2022/07/02 05:03:40;;;;;;;12.00;10.77;;;;;;;26.40;57.99;99579.81;5049657;28;20203;-66
2022/07/02 05:06:08;;;;;;;13.07;11.97;;;;;;;26.43;58.13;99582.25;5049650;28;20196;-66
2022/07/02 05:08:35;;;;;;;11.97;10.90;;;;;;;26.40;58.27;99580.63;5049962;28;20199;-66
2022/07/02 05:11:02;;;;;;;12.32;11.15;;;;;;;26.43;56.84;99584.91;5049892;28;20551;-66
2022/07/02 05:13:29;;;;;;;11.33;10.43;;;;;;;26.47;57.05;99575.94;5049641;28;20196;-66
2022/07/02 05:15:56;;;;;;;12.50;11.35;;;;;;;26.49;56.88;99574.06;5049815;28;20196;-66
2022/07/02 05:18:24;;;;;;;14.27;12.80;;;;;;;26.54;56.97;99574.72;5049923;28;20192;-67
2022/07/02 05:20:51;;;;;;;13.70;12.40;;;;;;;26.61;56.73;99573.50;5049575;28;20577;-67
2022/07/02 05:23:19;;;;;;;15.10;12.23;;;;;;;26.69;56.22;99574.84;5049333;28;20263;-65
2022/07/02 05:25:46;;;;;;;13.27;11.75;;;;;;;26.74;55.00;99579.88;5052610;28;20439;-66
2022/07/02 05:28:13;;;;;;;13.43;12.17;;;;;;;26.84;55.49;99578.53;5053147;28;20212;-65
2022/07/02 05:30:39;;;;;;;12.50;11.40;;;;;;;26.89;55.20;99579.19;5053337;28;20287;-66
2022/07/02 05:33:06;;;;;;;13.18;11.90;;;;;;;26.93;54.94;99578.09;5053167;28;20582;-67
2022/07/02 05:35:33;;;;;;;13.13;11.23;;;;;;;26.87;55.31;99576.63;5053193;28;20204;-66
2022/07/02 05:38:00;;;;;;;13.63;11.73;;;;;;;27.03;55.53;99581.97;5053084;28;20567;-66
2022/07/02 05:40:28;;;;;;;12.57;11.50;;;;;;;27.18;54.80;99581.25;5053231;28;20198;-66
2022/07/02 05:42:55;;;;;;;13.35;12.07;;;;;;;27.26;54.88;99583.47;5052957;28;20196;-66
2022/07/02 05:45:22;;;;;;;13.52;12.10;;;;;;;27.34;54.92;99582.16;5052318;28;20438;-66
2022/07/02 05:47:49;;;;;;;12.88;11.60;;;;;;;27.47;54.10;99580.63;5052917;28;20590;-66
2022/07/02 05:50:16;;;;;;;12.63;11.32;;;;;;;27.61;54.09;99574.66;5052854;28;20681;-66
2022/07/02 05:52:43;;;;;;;12.45;11.38;;;;;;;27.59;54.45;99580.94;5052822;28;20195;-67
2022/07/02 05:55:11;;;;;;;12.38;11.07;;;;;;;27.67;54.06;99569.06;5052586;28;20686;-66
2022/07/02 05:57:39;;;;;;;12.70;11.55;;;;;;;27.67;54.11;99584.91;5052557;28;20693;-66
2022/07/02 06:00:08;;;;;;;13.02;11.82;;;;;;;27.78;53.57;99585.19;5051720;28;20519;-67
2022/07/02 06:02:35;;;;;;;13.02;11.82;;;;;;;27.80;53.42;99577.22;5052608;28;20197;-67
2022/07/02 06:07:38;;;;;;;13.57;12.18;;;;;;;27.89;53.59;99587.25;5052460;28;20196;-65
2022/07/02 06:07:50;;;;;;;12.23;11.23;;;;;;;28.02;53.54;99588.31;5052484;28;20223;-66
2022/07/02 06:10:19;;;;;;;13.85;11.52;;;;;;;28.13;53.16;99591.25;5052311;28;20238;-66
2022/07/02 06:12:48;;;;;;;14.98;11.80;;;;;;;28.19;53.23;99587.44;5052458;28;20599;-67
2022/07/02 06:15:15;;;;;;;12.10;11.00;;;;;;;28.22;53.33;99580.22;5052479;28;20192;-67
2022/07/02 06:17:42;;;;;;;13.37;12.00;;;;;;;28.35;53.62;99586.53;5051532;28;20810;-67
2022/07/02 06:20:10;;;;;;;12.77;11.68;;;;;;;28.48;53.58;99584.94;5051996;28;20199;-67
2022/07/02 06:22:37;;;;;;;12.38;11.25;;;;;;;28.56;51.91;99579.22;5052176;28;20181;-66
2022/07/02 06:25:04;;;;;;;13.88;11.57;;;;;;;28.54;52.14;99581.09;5052152;28;20198;-66
2022/07/02 06:27:33;;;;;;;12.27;10.73;;;;;;;28.51;51.45;99587.38;5051972;28;20216;-66
2022/07/02 06:30:01;;;;;;;13.60;10.82;;;;;;;28.54;51.81;99589.03;5052189;28;20264;-66
2022/07/02 06:32:28;;;;;;;11.70;10.63;;;;;;;28.51;52.30;99579.44;5050989;28;20439;-65
2022/07/02 06:34:55;;;;;;;12.05;10.75;;;;;;;28.63;51.91;99588.53;5051710;28;20266;-66
2022/07/02 06:37:22;;;;;;;12.32;10.93;;;;;;;28.54;51.01;99587.22;5051846;28;20201;-66
2022/07/02 06:39:49;;;;;;;11.90;10.90;;;;;;;28.38;52.45;99588.13;5052231;28;20192;-66
2022/07/02 06:42:23;;;;;;;13.02;11.68;;;;;;;28.37;52.03;99597.88;5051748;28;20196;-66
2022/07/02 06:44:52;;;;;;;11.32;10.32;;;;;;;28.28;52.08;99564.03;5051762;28;20219;-67
2022/07/02 06:47:20;;;;;;;11.90;10.70;;;;;;;28.53;52.04;99590.81;5051608;28;20216;-67
2022/07/02 06:49:49;;;;;;;12.85;10.77;;;;;;;28.62;51.67;99590.31;5051553;28;20184;-67
2022/07/02 06:52:16;;;;;;;12.98;11.32;;;;;;;28.72;52.20;99587.16;5051621;28;20663;-66
2022/07/02 06:54:44;;;;;;;12.63;11.55;;;;;;;28.83;51.69;99595.34;5051445;28;20563;-67
2022/07/02 06:57:11;;;;;;;12.70;11.50;;;;;;;28.87;51.90;99588.94;5051465;28;20188;-67
2022/07/02 06:59:38;;;;;;;12.82;11.52;;;;;;;28.93;51.89;99591.22;5051288;28;20192;-66
2022/07/02 07:02:06;;;;;;;12.27;11.05;;;;;;;28.98;51.48;99589.19;5051165;28;20200;-66
2022/07/02 07:04:35;;;;;;;13.30;11.93;;;;;;;29.10;51.13;99580.53;5050730;28;20518;-66
2022/07/02 07:07:05;;;;;;;13.50;11.88;;;;;;;29.23;50.60;99597.44;5051483;28;20231;-66
2022/07/02 07:09:34;;;;;;;11.60;10.70;;;;;;;29.35;51.08;99588.78;5051123;28;20203;-66
2022/07/02 07:12:01;;;;;;;13.13;11.27;;;;;;;29.26;50.44;99584.00;5050584;28;20223;-67
2022/07/02 07:14:28;;;;;;;15.00;13.73;;;;;;;29.35;51.47;99591.44;5050810;28;20184;-66
2022/07/02 07:16:55;;;;;;;11.90;10.80;;;;;;;29.40;51.16;99591.13;5050829;28;20254;-66
2022/07/02 07:19:22;;;;;;;12.43;11.13;;;;;;;29.24;51.23;99555.00;5050935;28;20249;-66
2022/07/02 07:21:50;;;;;;;12.75;11.40;;;;;;;29.61;50.22;99598.66;5050849;28;20454;-67
2022/07/02 07:24:17;;;;;;;12.15;10.90;;;;;;;29.63;50.71;99603.88;5050616;28;20192;-67
2022/07/02 07:26:44;;;;;;;13.18;11.35;;;;;;;29.71;51.28;99599.84;5050402;28;20199;-67
2022/07/02 07:29:11;;;;;;;12.52;11.23;;;;;;;29.72;50.73;99604.16;5050385;28;20188;-66
2022/07/02 07:31:38;;;;;;;13.95;12.65;;;;;;;29.89;50.77;99599.69;5050790;28;20195;-66
2022/07/02 07:34:05;;;;;;;22.30;11.93;;;;;;;29.94;49.92;99592.31;5050660;28;20199;-66
2022/07/02 07:36:32;;;;;;;17.23;14.00;;;;;;;29.94;50.61;99592.31;5049795;28;20436;-67
2022/07/02 07:39:02;;;;;;;12.05;10.90;;;;;;;30.01;49.20;99599.78;5050401;28;20210;-66
2022/07/02 07:41:28;;;;;;;14.25;13.15;;;;;;;30.02;50.52;99596.19;5050122;28;20625;-66
2022/07/02 07:43:55;;;;;;;13.48;12.27;;;;;;;30.04;50.86;99594.31;5050393;28;20192;-66
2022/07/02 07:46:22;;;;;;;14.43;13.02;;;;;;;30.10;50.64;99599.22;5050049;28;20235;-66
2022/07/02 07:48:50;;;;;;;14.35;12.70;;;;;;;30.12;50.26;99599.97;5049817;28;20317;-66
2022/07/02 07:51:17;;;;;;;13.65;12.45;;;;;;;30.05;50.23;99592.50;5050141;28;20188;-66
2022/07/02 07:53:44;;;;;;;14.45;13.25;;;;;;;30.13;49.94;99587.56;5050141;28;20192;-66
2022/07/02 07:56:14;;;;;;;14.35;13.15;;;;;;;30.24;50.06;99590.41;5048868;28;20439;-66
2022/07/02 07:58:41;;;;;;;12.90;11.80;;;;;;;30.33;49.08;99592.47;5049890;28;20196;-67
2022/07/02 08:01:07;;;;;;;13.00;11.80;;;;;;;30.35;48.94;99595.91;5050165;28;20686;-66
2022/07/02 08:03:34;;;;;;;14.32;12.95;;;;;;;30.40;48.82;99609.75;5049831;28;20192;-67
2022/07/02 08:06:01;;;;;;;13.27;12.07;;;;;;;30.42;48.61;99604.31;5049609;28;20188;-67
2022/07/02 08:08:28;;;;;;;14.00;12.55;;;;;;;30.38;47.28;99603.69;5049848;28;20649;-66
2022/07/02 08:10:55;;;;;;;13.48;12.30;;;;;;;30.47;48.39;99608.41;5049999;28;20192;-67
2022/07/02 08:13:23;;;;;;;14.20;12.85;;;;;;;30.49;47.99;99605.66;5049895;28;20196;-67
2022/07/02 08:15:50;;;;;;;13.48;12.27;;;;;;;30.48;47.83;99604.81;5049677;28;20211;-66
2022/07/02 08:18:17;;;;;;;14.25;12.70;;;;;;;30.51;47.26;99607.25;5049739;28;20564;-66
2022/07/02 08:20:43;;;;;;;14.65;13.30;;;;;;;30.50;48.09;99602.03;5049590;28;20195;-67
2022/07/02 08:23:10;;;;;;;14.05;12.73;;;;;;;30.58;48.06;99605.91;5049430;28;20215;-66
2022/07/02 08:25:37;;;;;;;13.63;12.50;;;;;;;30.62;48.01;99611.88;5049333;28;20571;-67
2022/07/02 08:28:05;;;;;;;14.55;13.20;;;;;;;30.53;46.90;99609.81;5049295;28;20227;-67
2022/07/02 08:30:33;;;;;;;13.85;12.65;;;;;;;30.67;46.38;99607.13;5049229;28;20199;-67
2022/07/02 08:33:00;;;;;;;15.15;13.90;;;;;;;30.74;45.81;99608.41;5048850;28;20195;-66
2022/07/02 08:35:27;;;;;;;14.18;12.98;;;;;;;30.73;45.30;99612.91;5049272;28;20283;-67
2022/07/02 08:37:54;;;;;;;15.18;13.85;;;;;;;30.82;45.61;99606.97;5048823;28;20540;-66
2022/07/02 08:40:24;;;;;;;15.77;14.27;;;;;;;30.91;45.19;99611.69;5049328;28;20196;-66
2022/07/02 08:42:52;;;;;;;14.43;13.30;;;;;;;30.88;44.26;99608.38;5048367;28;20923;-66
2022/07/02 08:45:23;;;;;;;15.15;13.63;;;;;;;30.99;44.87;99616.53;5048577;28;20306;-66
2022/07/02 08:47:53;;;;;;;14.40;13.15;;;;;;;31.05;43.58;99615.28;5048949;28;20231;-67
2022/07/02 08:50:22;;;;;;;14.30;13.10;;;;;;;31.05;42.93;99613.47;5049216;28;20200;-67
2022/07/02 08:52:50;;;;;;;13.75;12.48;;;;;;;31.07;42.97;99614.22;5049374;28;20192;-67
2022/07/02 08:55:19;;;;;;;14.00;12.65;;;;;;;31.19;42.62;99612.56;5049485;28;20243;-66
2022/07/02 08:57:47;;;;;;;12.82;11.80;;;;;;;31.40;42.49;99605.81;5049538;28;20267;-66
2022/07/02 09:00:15;;;;;;;12.48;11.27;;;;;;;31.53;41.68;99610.22;5053205;28;20435;-67
2022/07/02 09:02:44;;;;;;;14.35;12.85;;;;;;;31.49;42.45;99594.59;5053059;28;20192;-67
2022/07/02 09:05:13;;;;;;;14.60;13.20;;;;;;;31.59;42.55;99611.63;5053034;28;20192;-68
2022/07/02 09:07:40;;;;;;;14.18;12.77;;;;;;;31.62;42.13;99608.75;5053035;28;20277;-67
2022/07/02 09:10:10;;;;;;;12.07;10.90;;;;;;;31.54;40.21;99608.44;5052888;28;20196;-68
2022/07/02 09:12:37;;;;;;;11.63;10.55;;;;;;;31.64;40.52;99606.88;5053170;28;20682;-68
2022/07/02 09:15:04;;;;;;;12.60;11.55;;;;;;;31.77;40.67;99602.41;5052899;28;20796;-67
2022/07/02 09:17:31;;;;;;;12.82;11.60;;;;;;;31.99;41.07;99604.41;5052978;28;20192;-67
2022/07/02 09:19:58;;;;;;;12.50;11.40;;;;;;;32.16;40.82;99596.16;5052488;28;20196;-67
2022/07/02 09:22:34;;;;;;;13.00;11.88;;;;;;;32.34;40.41;99604.59;5052435;28;20267;-67
2022/07/02 09:25:08;;;;;;;12.77;11.48;;;;;;;32.34;39.68;99596.63;5052309;28;20280;-67
2022/07/02 09:27:35;;;;;;;11.77;10.85;;;;;;;32.39;40.25;99592.69;5052312;28;20358;-66
2022/07/02 09:30:02;;;;;;;12.10;11.10;;;;;;;32.16;40.00;99550.94;5052141;28;20792;-67
2022/07/02 09:32:37;;;;;;;11.70;10.70;;;;;;;32.47;39.29;99600.13;5052348;28;20196;-67
2022/07/02 09:35:04;;;;;;;12.73;11.57;;;;;;;32.59;39.73;99599.25;5052690;28;20631;-67
2022/07/02 09:37:32;;;;;;;14.23;11.80;;;;;;;32.62;38.41;99597.25;5052464;28;20203;-67
2022/07/02 09:40:01;;;;;;;12.30;11.27;;;;;;;32.47;38.89;99560.22;5052631;28;20203;-67
2022/07/02 09:42:29;;;;;;;12.07;10.90;;;;;;;32.63;39.02;99593.59;5052250;28;20203;-66
2022/07/02 09:44:57;;;;;;;12.95;11.55;;;;;;;32.75;39.34;99593.66;5052010;28;20259;-67
2022/07/02 09:47:35;;;;;;;12.43;11.20;;;;;;;32.86;38.89;99596.38;5052236;28;20189;-67
2022/07/02 09:50:04;;;;;;;13.63;12.38;;;;;;;32.80;38.59;99576.38;5052106;28;20192;-67
2022/07/02 09:52:33;;;;;;;12.23;11.10;;;;;;;32.83;37.84;99596.59;5052128;28;20242;-66
2022/07/02 09:55:00;;;;;;;11.75;10.52;;;;;;;32.94;36.80;99596.66;5051780;28;20192;-67
2022/07/02 09:57:28;;;;;;;12.55;11.48;;;;;;;32.99;37.73;99594.53;5052405;28;20189;-67
2022/07/02 10:00:04;;;;;;;17.75;13.95;;;;;;;33.20;36.76;99590.31;5052644;28;20311;-67
2022/07/02 10:02:31;;;;;;;10.45;9.63;;;;;;;33.13;35.91;99571.25;5051928;28;20274;-67
2022/07/02 10:04:58;;;;;;;11.18;10.35;;;;;;;33.28;37.24;99587.06;5052058;28;20536;-67
2022/07/02 10:07:25;;;;;;;10.85;9.85;;;;;;;33.22;36.18;99575.91;5051068;28;20439;-67
2022/07/02 10:09:54;;;;;;;10.25;9.27;;;;;;;33.32;36.31;99564.56;5051445;28;20195;-67
2022/07/02 10:12:21;;;;;;;10.90;9.93;;;;;;;33.57;35.91;99583.88;5051871;28;20275;-66
2022/07/02 10:14:50;;;;;;;11.05;10.05;;;;;;;33.71;35.50;99580.16;5051394;28;20208;-67
2022/07/02 10:17:17;;;;;;;13.93;12.82;;;;;;;33.78;35.14;99581.41;5051286;28;20226;-68
2022/07/02 10:19:44;;;;;;;9.88;9.07;;;;;;;33.83;34.68;99580.06;5051405;28;20667;-66
2022/07/02 10:22:11;;;;;;;8.77;8.07;;;;;;;33.55;33.70;99580.47;5051495;28;20192;-67
2022/07/02 10:24:38;;;;;;;9.43;8.00;;;;;;;33.49;34.63;99585.41;5051521;28;20200;-67
2022/07/02 10:27:06;;;;;;;10.65;9.70;;;;;;;33.40;35.18;99581.66;5051932;28;20192;-68
2022/07/02 10:29:34;;;;;;;11.65;10.45;;;;;;;33.55;35.76;99574.28;5051502;28;20219;-67
2022/07/02 10:32:15;;;;;;;11.30;10.32;;;;;;;33.53;36.19;99577.09;5051522;28;20192;-67
2022/07/02 10:34:57;;;;;;;12.73;11.57;;;;;;;33.88;36.88;99576.19;5051611;28;20188;-67
2022/07/02 10:37:24;;;;;;;11.68;10.57;;;;;;;33.97;36.13;99567.47;5051582;28;20199;-65
2022/07/02 10:40:00;;;;;;;12.55;11.35;;;;;;;33.85;37.11;99571.94;5050937;28;20458;-67
2022/07/02 10:42:39;;;;;;;11.68;10.70;;;;;;;34.19;37.27;99575.50;5051763;28;20215;-67
2022/07/02 10:45:14;;;;;;;11.77;10.75;;;;;;;34.33;35.23;99584.13;5051456;28;20318;-66
2022/07/02 10:47:58;;;;;;;10.77;9.68;;;;;;;34.45;35.96;99570.75;5051925;28;20200;-67
2022/07/02 10:50:40;;;;;;;14.98;11.18;;;;;;;34.48;35.77;99560.66;5051922;28;20257;-67
2022/07/02 10:53:11;;;;;;;11.55;10.43;;;;;;;34.59;35.44;99562.47;5051737;28;20315;-68
2022/07/02 10:55:39;;;;;;;15.90;13.68;;;;;;;34.78;35.95;99562.66;5050854;28;20922;-68
2022/07/02 10:58:09;;;;;;;12.70;11.50;;;;;;;34.94;34.26;99566.63;5051727;28;20195;-67
2022/07/02 11:00:38;;;;;;;12.27;11.27;;;;;;;34.91;34.34;99548.16;5051695;28;20287;-67
2022/07/02 11:03:13;;;;;;;13.35;11.98;;;;;;;34.98;35.40;99548.53;5051551;28;20196;-68
2022/07/02 11:05:58;;;;;;;11.00;10.10;;;;;;;35.01;34.81;99548.28;5051254;28;20188;-68
2022/07/02 11:08:47;;;;;;;10.60;9.70;;;;;;;34.89;33.91;99563.47;5051628;28;20650;-67
2022/07/02 11:11:17;;;;;;;11.50;10.60;;;;;;;34.88;33.96;99544.94;5049725;28;20667;-68
2022/07/02 11:13:48;;;;;;;10.63;9.75;;;;;;;35.03;34.96;99550.78;5051008;28;20223;-67
2022/07/02 11:16:20;;;;;;;10.15;8.85;;;;;;;35.03;34.11;99548.13;5050859;28;20262;-68
2022/07/02 11:18:47;;;;;;;11.75;10.55;;;;;;;35.12;34.95;99550.91;5051132;28;20567;-68
2022/07/02 11:21:15;;;;;;;10.15;9.25;;;;;;;35.17;34.22;99540.69;5050532;28;20184;-67
2022/07/02 11:23:42;;;;;;;11.75;10.63;;;;;;;35.31;34.14;99547.53;5050608;28;20192;-67